sensor_id;sensor_type;location;lat;lon;timestamp;temperature;humidity
17053;DHT22;8643;48.824;11.422;2023-01-31T00:00:46;2.20;99.90
17053;DHT22;8643;48.824;11.422;2023-01-31T00:03:15;2.20;99.90
17053;DHT22;8643;48.824;11.422;2023-01-31T00:05:48;2.20;99.90
17053;DHT22;8643;48.824;11.422;2023-01-31T00:08:16;2.20;99.90
17053;DHT22;8643;48.824;11.422;2023-01-31T00:10:45;2.30;99.90
17053;DHT22;8643;48.824;11.422;2023-01-31T00:18:10;2.30;99.90
17053;DHT22;8643;48.824;11.422;2023-01-31T00:20:42;2.30;99.90
17053;DHT22;8643;48.824;11.422;2023-01-31T00:23:12;2.20;99.90
17053;DHT22;8643;48.824;11.422;2023-01-31T00:25:40;3.80;99.90
17053;DHT22;8643;48.824;11.422;2023-01-31T00:28:08;2.20;99.90
17053;DHT22;8643;48.824;11.422;2023-01-31T00:30:37;2.20;99.90
17053;DHT22;8643;48.824;11.422;2023-01-31T00:33:05;2.20;99.90
17053;DHT22;8643;48.824;11.422;2023-01-31T00:38:06;2.10;99.90
17053;DHT22;8643;48.824;11.422;2023-01-31T00:40:36;1.80;99.90
17053;DHT22;8643;48.824;11.422;2023-01-31T00:43:05;2.10;99.90
17053;DHT22;8643;48.824;11.422;2023-01-31T00:48:03;2.00;99.90
17053;DHT22;8643;48.824;11.422;2023-01-31T00:50:31;2.10;99.90
17053;DHT22;8643;48.824;11.422;2023-01-31T00:53:01;2.10;99.90
17053;DHT22;8643;48.824;11.422;2023-01-31T00:55:29;2.10;99.90
17053;DHT22;8643;48.824;11.422;2023-01-31T00:57:59;2.20;99.90
17053;DHT22;8643;48.824;11.422;2023-01-31T01:00:28;2.10;99.90
17053;DHT22;8643;48.824;11.422;2023-01-31T01:02:57;2.10;99.90
17053;DHT22;8643;48.824;11.422;2023-01-31T01:05:26;2.10;99.90
17053;DHT22;8643;48.824;11.422;2023-01-31T01:07:54;2.10;99.90
17053;DHT22;8643;48.824;11.422;2023-01-31T01:10:23;2.20;99.90
17053;DHT22;8643;48.824;11.422;2023-01-31T01:12:51;2.20;99.90
17053;DHT22;8643;48.824;11.422;2023-01-31T01:15:21;2.20;99.90
17053;DHT22;8643;48.824;11.422;2023-01-31T01:17:50;2.40;99.90
17053;DHT22;8643;48.824;11.422;2023-01-31T01:20:18;2.20;99.90
17053;DHT22;8643;48.824;11.422;2023-01-31T01:22:47;2.10;99.90
17053;DHT22;8643;48.824;11.422;2023-01-31T01:25:16;2.20;99.90
17053;DHT22;8643;48.824;11.422;2023-01-31T01:27:48;2.10;99.90
17053;DHT22;8643;48.824;11.422;2023-01-31T01:30:17;2.20;99.90
17053;DHT22;8643;48.824;11.422;2023-01-31T01:32:47;2.10;99.90
17053;DHT22;8643;48.824;11.422;2023-01-31T01:35:16;1.80;99.90
17053;DHT22;8643;48.824;11.422;2023-01-31T01:37:44;2.20;99.90
17053;DHT22;8643;48.824;11.422;2023-01-31T01:40:13;2.30;99.90
17053;DHT22;8643;48.824;11.422;2023-01-31T01:42:41;2.30;99.90
17053;DHT22;8643;48.824;11.422;2023-01-31T01:45:13;3.50;99.90
17053;DHT22;8643;48.824;11.422;2023-01-31T01:47:49;2.30;99.90
17053;DHT22;8643;48.824;11.422;2023-01-31T01:50:22;2.30;99.90
17053;DHT22;8643;48.824;11.422;2023-01-31T01:52:57;2.40;99.90
17053;DHT22;8643;48.824;11.422;2023-01-31T01:55:32;2.30;99.90
17053;DHT22;8643;48.824;11.422;2023-01-31T01:58:06;2.30;99.90
17053;DHT22;8643;48.824;11.422;2023-01-31T02:00:41;2.40;99.90
17053;DHT22;8643;48.824;11.422;2023-01-31T02:03:14;2.40;99.90
17053;DHT22;8643;48.824;11.422;2023-01-31T02:05:47;2.40;99.90
17053;DHT22;8643;48.824;11.422;2023-01-31T02:08:19;2.40;99.90
17053;DHT22;8643;48.824;11.422;2023-01-31T02:10:54;2.40;99.90
17053;DHT22;8643;48.824;11.422;2023-01-31T02:13:26;2.00;99.90
17053;DHT22;8643;48.824;11.422;2023-01-31T02:15:56;4.10;99.90
17053;DHT22;8643;48.824;11.422;2023-01-31T02:18:27;2.30;99.90
17053;DHT22;8643;48.824;11.422;2023-01-31T02:21:23;2.30;99.90
17053;DHT22;8643;48.824;11.422;2023-01-31T02:24:39;2.30;99.90
17053;DHT22;8643;48.824;11.422;2023-01-31T02:28:11;2.30;99.90
17053;DHT22;8643;48.824;11.422;2023-01-31T02:34:38;2.30;99.90
17053;DHT22;8643;48.824;11.422;2023-01-31T02:37:24;2.20;99.90
17053;DHT22;8643;48.824;11.422;2023-01-31T02:42:47;2.20;99.90
17053;DHT22;8643;48.824;11.422;2023-01-31T02:45:32;2.40;99.90
17053;DHT22;8643;48.824;11.422;2023-01-31T02:48:15;2.20;99.90
17053;DHT22;8643;48.824;11.422;2023-01-31T02:51:03;2.30;99.90
17053;DHT22;8643;48.824;11.422;2023-01-31T02:53:41;2.30;99.90
17053;DHT22;8643;48.824;11.422;2023-01-31T02:56:19;2.30;99.90
17053;DHT22;8643;48.824;11.422;2023-01-31T02:58:55;2.30;99.90
17053;DHT22;8643;48.824;11.422;2023-01-31T03:01:29;2.30;99.90
17053;DHT22;8643;48.824;11.422;2023-01-31T03:04:03;3.30;99.90
17053;DHT22;8643;48.824;11.422;2023-01-31T03:06:51;2.30;99.90
17053;DHT22;8643;48.824;11.422;2023-01-31T03:09:46;2.20;99.90
17053;DHT22;8643;48.824;11.422;2023-01-31T03:12:41;2.20;99.90
17053;DHT22;8643;48.824;11.422;2023-01-31T03:15:34;2.30;99.90
17053;DHT22;8643;48.824;11.422;2023-01-31T03:18:29;2.30;99.90
17053;DHT22;8643;48.824;11.422;2023-01-31T03:21:07;2.30;99.90
17053;DHT22;8643;48.824;11.422;2023-01-31T03:23:45;2.30;99.90
17053;DHT22;8643;48.824;11.422;2023-01-31T03:26:23;2.20;99.90
17053;DHT22;8643;48.824;11.422;2023-01-31T03:28:54;2.20;99.90
17053;DHT22;8643;48.824;11.422;2023-01-31T03:31:29;2.20;99.90
17053;DHT22;8643;48.824;11.422;2023-01-31T03:34:06;2.20;99.90
17053;DHT22;8643;48.824;11.422;2023-01-31T03:36:40;2.20;99.90
17053;DHT22;8643;48.824;11.422;2023-01-31T03:39:37;2.20;99.90
17053;DHT22;8643;48.824;11.422;2023-01-31T03:42:17;2.10;99.90
17053;DHT22;8643;48.824;11.422;2023-01-31T03:44:55;2.10;99.90
17053;DHT22;8643;48.824;11.422;2023-01-31T03:47:35;2.20;99.90
17053;DHT22;8643;48.824;11.422;2023-01-31T03:50:11;2.20;99.90
17053;DHT22;8643;48.824;11.422;2023-01-31T03:52:47;2.20;99.90
17053;DHT22;8643;48.824;11.422;2023-01-31T03:55:29;2.20;99.90
17053;DHT22;8643;48.824;11.422;2023-01-31T03:58:02;2.20;99.90
17053;DHT22;8643;48.824;11.422;2023-01-31T04:00:36;2.20;99.90
17053;DHT22;8643;48.824;11.422;2023-01-31T04:03:13;2.20;99.90
17053;DHT22;8643;48.824;11.422;2023-01-31T04:05:46;2.20;99.90
17053;DHT22;8643;48.824;11.422;2023-01-31T04:08:16;2.30;99.90
17053;DHT22;8643;48.824;11.422;2023-01-31T04:10:54;2.20;99.90
17053;DHT22;8643;48.824;11.422;2023-01-31T04:13:24;2.20;99.90
17053;DHT22;8643;48.824;11.422;2023-01-31T04:18:21;2.20;99.90
17053;DHT22;8643;48.824;11.422;2023-01-31T04:20:49;2.20;99.90
17053;DHT22;8643;48.824;11.422;2023-01-31T04:23:18;2.20;99.90
17053;DHT22;8643;48.824;11.422;2023-01-31T04:25:46;2.30;99.90
17053;DHT22;8643;48.824;11.422;2023-01-31T04:28:16;2.30;99.90
17053;DHT22;8643;48.824;11.422;2023-01-31T04:30:45;2.20;99.90
17053;DHT22;8643;48.824;11.422;2023-01-31T04:35:42;2.20;99.90
17053;DHT22;8643;48.824;11.422;2023-01-31T04:38:11;2.20;99.90
17053;DHT22;8643;48.824;11.422;2023-01-31T04:40:39;2.10;99.90
17053;DHT22;8643;48.824;11.422;2023-01-31T04:43:08;2.20;99.90
17053;DHT22;8643;48.824;11.422;2023-01-31T04:45:38;2.10;99.90
17053;DHT22;8643;48.824;11.422;2023-01-31T04:48:06;2.10;99.90
17053;DHT22;8643;48.824;11.422;2023-01-31T04:50:37;2.20;99.90
17053;DHT22;8643;48.824;11.422;2023-01-31T04:53:05;2.20;99.90
17053;DHT22;8643;48.824;11.422;2023-01-31T04:55:35;2.20;99.90
17053;DHT22;8643;48.824;11.422;2023-01-31T04:58:04;2.20;99.90
17053;DHT22;8643;48.824;11.422;2023-01-31T05:00:33;2.20;99.90
17053;DHT22;8643;48.824;11.422;2023-01-31T05:03:03;2.20;99.90
17053;DHT22;8643;48.824;11.422;2023-01-31T05:05:32;2.20;99.90
17053;DHT22;8643;48.824;11.422;2023-01-31T05:08:02;2.20;99.90
17053;DHT22;8643;48.824;11.422;2023-01-31T05:10:32;2.20;99.90
17053;DHT22;8643;48.824;11.422;2023-01-31T05:13:02;2.30;99.90
17053;DHT22;8643;48.824;11.422;2023-01-31T05:15:31;2.90;99.90
17053;DHT22;8643;48.824;11.422;2023-01-31T05:17:59;2.30;99.90
17053;DHT22;8643;48.824;11.422;2023-01-31T05:20:33;2.30;99.90
17053;DHT22;8643;48.824;11.422;2023-01-31T05:23:05;2.30;99.90
17053;DHT22;8643;48.824;11.422;2023-01-31T05:25:35;2.30;99.90
17053;DHT22;8643;48.824;11.422;2023-01-31T05:28:04;2.30;99.90
17053;DHT22;8643;48.824;11.422;2023-01-31T05:33:05;2.20;99.90
17053;DHT22;8643;48.824;11.422;2023-01-31T05:35:35;2.20;99.90
17053;DHT22;8643;48.824;11.422;2023-01-31T05:40:34;2.20;99.90
17053;DHT22;8643;48.824;11.422;2023-01-31T05:43:03;2.20;99.90
17053;DHT22;8643;48.824;11.422;2023-01-31T05:45:32;2.20;99.90
17053;DHT22;8643;48.824;11.422;2023-01-31T05:48:01;2.20;99.90
17053;DHT22;8643;48.824;11.422;2023-01-31T05:50:31;2.20;99.90
17053;DHT22;8643;48.824;11.422;2023-01-31T05:53:09;2.20;99.90
17053;DHT22;8643;48.824;11.422;2023-01-31T05:55:37;2.20;99.90
17053;DHT22;8643;48.824;11.422;2023-01-31T05:58:06;2.60;99.90
17053;DHT22;8643;48.824;11.422;2023-01-31T06:00:34;2.20;99.90
17053;DHT22;8643;48.824;11.422;2023-01-31T06:03:03;2.20;99.90
17053;DHT22;8643;48.824;11.422;2023-01-31T06:05:31;2.20;99.90
17053;DHT22;8643;48.824;11.422;2023-01-31T06:08:00;2.10;99.90
17053;DHT22;8643;48.824;11.422;2023-01-31T06:10:30;2.10;99.90
17053;DHT22;8643;48.824;11.422;2023-01-31T06:12:59;2.10;99.90
17053;DHT22;8643;48.824;11.422;2023-01-31T06:15:27;2.10;99.90
17053;DHT22;8643;48.824;11.422;2023-01-31T06:17:56;2.00;99.90
17053;DHT22;8643;48.824;11.422;2023-01-31T06:22:54;2.00;99.90
17053;DHT22;8643;48.824;11.422;2023-01-31T06:25:26;1.90;99.90
17053;DHT22;8643;48.824;11.422;2023-01-31T06:27:56;1.90;99.90
17053;DHT22;8643;48.824;11.422;2023-01-31T06:32:53;1.80;99.90
17053;DHT22;8643;48.824;11.422;2023-01-31T06:35:22;1.80;99.90
17053;DHT22;8643;48.824;11.422;2023-01-31T06:37:50;2.40;99.90
17053;DHT22;8643;48.824;11.422;2023-01-31T06:40:19;2.50;99.90
17053;DHT22;8643;48.824;11.422;2023-01-31T06:42:48;1.80;99.90
17053;DHT22;8643;48.824;11.422;2023-01-31T06:45:18;1.80;99.90
17053;DHT22;8643;48.824;11.422;2023-01-31T06:47:46;2.10;99.90
17053;DHT22;8643;48.824;11.422;2023-01-31T06:50:16;1.80;99.90
17053;DHT22;8643;48.824;11.422;2023-01-31T06:52:45;1.90;99.90
17053;DHT22;8643;48.824;11.422;2023-01-31T06:55:14;1.90;99.90
17053;DHT22;8643;48.824;11.422;2023-01-31T06:57:46;1.90;99.90
17053;DHT22;8643;48.824;11.422;2023-01-31T07:00:15;1.90;99.90
17053;DHT22;8643;48.824;11.422;2023-01-31T07:02:46;1.80;99.90
17053;DHT22;8643;48.824;11.422;2023-01-31T07:05:15;1.80;99.90
17053;DHT22;8643;48.824;11.422;2023-01-31T07:07:45;1.80;99.90
17053;DHT22;8643;48.824;11.422;2023-01-31T07:10:16;1.80;99.90
17053;DHT22;8643;48.824;11.422;2023-01-31T07:12:44;1.70;99.90
17053;DHT22;8643;48.824;11.422;2023-01-31T07:15:13;1.90;99.90
17053;DHT22;8643;48.824;11.422;2023-01-31T07:17:43;1.90;99.90
17053;DHT22;8643;48.824;11.422;2023-01-31T07:20:12;1.80;99.90
17053;DHT22;8643;48.824;11.422;2023-01-31T07:25:09;1.80;99.90
17053;DHT22;8643;48.824;11.422;2023-01-31T07:30:07;1.90;99.90
17053;DHT22;8643;48.824;11.422;2023-01-31T07:32:37;1.90;99.90
17053;DHT22;8643;48.824;11.422;2023-01-31T07:35:08;1.90;99.90
17053;DHT22;8643;48.824;11.422;2023-01-31T07:37:37;1.90;99.90
17053;DHT22;8643;48.824;11.422;2023-01-31T07:40:07;1.90;99.90
17053;DHT22;8643;48.824;11.422;2023-01-31T07:42:37;1.90;99.90
17053;DHT22;8643;48.824;11.422;2023-01-31T07:45:08;1.90;99.90
17053;DHT22;8643;48.824;11.422;2023-01-31T07:47:49;1.90;99.90
17053;DHT22;8643;48.824;11.422;2023-01-31T07:52:53;1.90;99.90
17053;DHT22;8643;48.824;11.422;2023-01-31T07:55:23;1.90;99.90
17053;DHT22;8643;48.824;11.422;2023-01-31T07:57:52;1.90;99.90
17053;DHT22;8643;48.824;11.422;2023-01-31T08:00:21;1.90;99.90
17053;DHT22;8643;48.824;11.422;2023-01-31T08:03:22;1.90;99.90
17053;DHT22;8643;48.824;11.422;2023-01-31T08:06:05;2.00;99.90
17053;DHT22;8643;48.824;11.422;2023-01-31T08:08:36;2.00;99.90
17053;DHT22;8643;48.824;11.422;2023-01-31T08:11:05;2.10;99.90
17053;DHT22;8643;48.824;11.422;2023-01-31T08:13:35;2.20;99.90
17053;DHT22;8643;48.824;11.422;2023-01-31T08:16:05;2.20;99.90
17053;DHT22;8643;48.824;11.422;2023-01-31T08:18:36;2.20;99.90
17053;DHT22;8643;48.824;11.422;2023-01-31T08:21:07;2.30;99.90
17053;DHT22;8643;48.824;11.422;2023-01-31T08:23:39;2.20;99.90
17053;DHT22;8643;48.824;11.422;2023-01-31T08:26:11;2.20;99.90
17053;DHT22;8643;48.824;11.422;2023-01-31T08:28:42;2.30;99.90
17053;DHT22;8643;48.824;11.422;2023-01-31T08:31:12;2.40;99.90
17053;DHT22;8643;48.824;11.422;2023-01-31T08:33:43;2.50;99.90
17053;DHT22;8643;48.824;11.422;2023-01-31T08:36:16;2.50;99.90
17053;DHT22;8643;48.824;11.422;2023-01-31T08:38:50;2.40;99.90
17053;DHT22;8643;48.824;11.422;2023-01-31T08:41:20;3.00;99.90
17053;DHT22;8643;48.824;11.422;2023-01-31T08:43:50;2.40;99.90
17053;DHT22;8643;48.824;11.422;2023-01-31T08:46:25;3.10;99.90
17053;DHT22;8643;48.824;11.422;2023-01-31T08:48:58;2.00;99.90
17053;DHT22;8643;48.824;11.422;2023-01-31T08:51:29;2.50;99.90
17053;DHT22;8643;48.824;11.422;2023-01-31T08:53:58;2.50;99.90
17053;DHT22;8643;48.824;11.422;2023-01-31T08:58:56;2.40;99.90
17053;DHT22;8643;48.824;11.422;2023-01-31T09:01:24;2.50;99.90
17053;DHT22;8643;48.824;11.422;2023-01-31T09:03:53;2.40;99.90
17053;DHT22;8643;48.824;11.422;2023-01-31T09:06:24;2.50;99.90
17053;DHT22;8643;48.824;11.422;2023-01-31T09:08:57;2.40;99.90
17053;DHT22;8643;48.824;11.422;2023-01-31T09:11:27;2.60;99.90
17053;DHT22;8643;48.824;11.422;2023-01-31T09:16:26;3.00;99.90
17053;DHT22;8643;48.824;11.422;2023-01-31T09:21:24;2.60;99.90
17053;DHT22;8643;48.824;11.422;2023-01-31T09:23:58;2.70;99.90
17053;DHT22;8643;48.824;11.422;2023-01-31T09:26:30;2.70;99.90
17053;DHT22;8643;48.824;11.422;2023-01-31T09:28:59;2.80;99.90
17053;DHT22;8643;48.824;11.422;2023-01-31T09:31:28;2.80;99.90
17053;DHT22;8643;48.824;11.422;2023-01-31T09:33:57;2.70;99.90
17053;DHT22;8643;48.824;11.422;2023-01-31T09:36:26;2.80;99.90
17053;DHT22;8643;48.824;11.422;2023-01-31T09:41:31;2.80;99.90
17053;DHT22;8643;48.824;11.422;2023-01-31T09:44:05;2.90;99.90
17053;DHT22;8643;48.824;11.422;2023-01-31T09:46:40;2.90;99.90
17053;DHT22;8643;48.824;11.422;2023-01-31T09:49:17;2.90;99.90
17053;DHT22;8643;48.824;11.422;2023-01-31T09:51:54;2.80;99.90
17053;DHT22;8643;48.824;11.422;2023-01-31T09:54:32;2.80;99.90
17053;DHT22;8643;48.824;11.422;2023-01-31T09:57:14;2.80;99.90
17053;DHT22;8643;48.824;11.422;2023-01-31T09:59:57;2.80;99.90
17053;DHT22;8643;48.824;11.422;2023-01-31T10:02:49;2.80;99.90
17053;DHT22;8643;48.824;11.422;2023-01-31T10:05:41;1.20;99.90
17053;DHT22;8643;48.824;11.422;2023-01-31T10:08:25;2.70;99.90
17053;DHT22;8643;48.824;11.422;2023-01-31T10:11:11;2.70;99.90
17053;DHT22;8643;48.824;11.422;2023-01-31T10:13:45;2.80;99.90
17053;DHT22;8643;48.824;11.422;2023-01-31T10:16:22;2.80;99.90
17053;DHT22;8643;48.824;11.422;2023-01-31T10:19:01;2.90;99.90
17053;DHT22;8643;48.824;11.422;2023-01-31T10:21:37;2.90;99.90
17053;DHT22;8643;48.824;11.422;2023-01-31T10:24:14;2.90;99.90
17053;DHT22;8643;48.824;11.422;2023-01-31T10:26:50;3.10;99.90
17053;DHT22;8643;48.824;11.422;2023-01-31T10:29:31;3.20;99.90
17053;DHT22;8643;48.824;11.422;2023-01-31T10:32:11;3.40;99.90
17053;DHT22;8643;48.824;11.422;2023-01-31T10:34:49;3.20;99.90
17053;DHT22;8643;48.824;11.422;2023-01-31T10:37:29;3.20;99.90
17053;DHT22;8643;48.824;11.422;2023-01-31T10:40:11;4.60;99.90
17053;DHT22;8643;48.824;11.422;2023-01-31T10:42:48;3.30;99.90
17053;DHT22;8643;48.824;11.422;2023-01-31T10:45:22;3.30;99.90
17053;DHT22;8643;48.824;11.422;2023-01-31T10:48:05;3.20;99.90
17053;DHT22;8643;48.824;11.422;2023-01-31T10:50:48;3.30;99.90
17053;DHT22;8643;48.824;11.422;2023-01-31T10:53:48;3.40;99.90
17053;DHT22;8643;48.824;11.422;2023-01-31T10:56:29;3.50;99.90
17053;DHT22;8643;48.824;11.422;2023-01-31T10:59:05;3.60;99.90
17053;DHT22;8643;48.824;11.422;2023-01-31T11:01:39;3.60;99.90
17053;DHT22;8643;48.824;11.422;2023-01-31T11:04:22;3.70;99.90
17053;DHT22;8643;48.824;11.422;2023-01-31T11:06:53;3.90;99.90
17053;DHT22;8643;48.824;11.422;2023-01-31T11:09:22;3.90;99.90
17053;DHT22;8643;48.824;11.422;2023-01-31T11:11:57;4.10;99.90
17053;DHT22;8643;48.824;11.422;2023-01-31T11:14:28;4.10;99.90
17053;DHT22;8643;48.824;11.422;2023-01-31T11:17:05;4.10;99.90
17053;DHT22;8643;48.824;11.422;2023-01-31T11:19:37;4.10;99.90
17053;DHT22;8643;48.824;11.422;2023-01-31T11:22:20;2.80;99.90
17053;DHT22;8643;48.824;11.422;2023-01-31T11:24:52;4.10;99.90
17053;DHT22;8643;48.824;11.422;2023-01-31T11:27:25;4.10;99.90
17053;DHT22;8643;48.824;11.422;2023-01-31T11:30:01;4.20;99.90
17053;DHT22;8643;48.824;11.422;2023-01-31T11:32:31;4.20;99.90
17053;DHT22;8643;48.824;11.422;2023-01-31T11:35:05;4.10;99.90
17053;DHT22;8643;48.824;11.422;2023-01-31T11:37:51;4.20;99.90
17053;DHT22;8643;48.824;11.422;2023-01-31T11:40:26;4.20;99.90
17053;DHT22;8643;48.824;11.422;2023-01-31T11:42:59;4.20;99.90
17053;DHT22;8643;48.824;11.422;2023-01-31T11:45:31;4.10;99.90
17053;DHT22;8643;48.824;11.422;2023-01-31T11:48:06;5.10;99.90
17053;DHT22;8643;48.824;11.422;2023-01-31T11:50:39;3.30;99.90
17053;DHT22;8643;48.824;11.422;2023-01-31T11:53:16;3.90;99.90
17053;DHT22;8643;48.824;11.422;2023-01-31T11:55:49;4.00;99.90
17053;DHT22;8643;48.824;11.422;2023-01-31T11:58:22;4.00;99.90
17053;DHT22;8643;48.824;11.422;2023-01-31T12:00:56;4.10;99.90
17053;DHT22;8643;48.824;11.422;2023-01-31T12:03:28;4.00;99.90
17053;DHT22;8643;48.824;11.422;2023-01-31T12:06:02;4.10;99.90
17053;DHT22;8643;48.824;11.422;2023-01-31T12:08:34;4.10;99.90
17053;DHT22;8643;48.824;11.422;2023-01-31T12:11:05;4.70;99.90
17053;DHT22;8643;48.824;11.422;2023-01-31T12:13:51;4.90;99.90
17053;DHT22;8643;48.824;11.422;2023-01-31T12:16:24;5.10;99.90
17053;DHT22;8643;48.824;11.422;2023-01-31T12:19:07;5.00;99.90
17053;DHT22;8643;48.824;11.422;2023-01-31T12:21:53;4.90;99.90
17053;DHT22;8643;48.824;11.422;2023-01-31T12:24:36;4.80;99.90
17053;DHT22;8643;48.824;11.422;2023-01-31T12:27:18;4.60;99.90
17053;DHT22;8643;48.824;11.422;2023-01-31T12:30:19;4.50;99.90
17053;DHT22;8643;48.824;11.422;2023-01-31T12:33:08;4.50;99.90
17053;DHT22;8643;48.824;11.422;2023-01-31T12:35:53;4.50;99.90
17053;DHT22;8643;48.824;11.422;2023-01-31T12:38:42;4.50;99.90
17053;DHT22;8643;48.824;11.422;2023-01-31T12:41:32;4.50;99.90
17053;DHT22;8643;48.824;11.422;2023-01-31T12:44:18;4.50;99.90
17053;DHT22;8643;48.824;11.422;2023-01-31T12:47:41;4.50;99.90
17053;DHT22;8643;48.824;11.422;2023-01-31T12:50:38;4.30;99.90
17053;DHT22;8643;48.824;11.422;2023-01-31T12:53:38;4.30;99.90
17053;DHT22;8643;48.824;11.422;2023-01-31T12:59:28;4.20;99.90
17053;DHT22;8643;48.824;11.422;2023-01-31T13:02:31;4.20;99.90
17053;DHT22;8643;48.824;11.422;2023-01-31T13:05:15;4.20;99.90
17053;DHT22;8643;48.824;11.422;2023-01-31T13:07:59;4.20;99.90
17053;DHT22;8643;48.824;11.422;2023-01-31T13:10:36;4.20;99.90
17053;DHT22;8643;48.824;11.422;2023-01-31T13:13:13;4.20;99.90
17053;DHT22;8643;48.824;11.422;2023-01-31T13:15:50;5.20;99.90
17053;DHT22;8643;48.824;11.422;2023-01-31T13:18:22;4.30;99.90
17053;DHT22;8643;48.824;11.422;2023-01-31T13:20:55;4.30;99.90
17053;DHT22;8643;48.824;11.422;2023-01-31T13:23:30;4.30;99.90
17053;DHT22;8643;48.824;11.422;2023-01-31T13:26:10;4.30;99.90
17053;DHT22;8643;48.824;11.422;2023-01-31T13:28:46;4.30;99.90
17053;DHT22;8643;48.824;11.422;2023-01-31T13:31:20;4.30;99.90
17053;DHT22;8643;48.824;11.422;2023-01-31T13:33:56;3.10;99.90
17053;DHT22;8643;48.824;11.422;2023-01-31T13:36:34;4.20;99.90
17053;DHT22;8643;48.824;11.422;2023-01-31T13:39:13;4.20;99.90
17053;DHT22;8643;48.824;11.422;2023-01-31T13:41:47;4.20;99.90
17053;DHT22;8643;48.824;11.422;2023-01-31T13:44:15;4.10;99.90
17053;DHT22;8643;48.824;11.422;2023-01-31T13:46:47;4.10;99.90
17053;DHT22;8643;48.824;11.422;2023-01-31T13:49:24;4.10;99.90
17053;DHT22;8643;48.824;11.422;2023-01-31T13:51:57;4.10;99.90
17053;DHT22;8643;48.824;11.422;2023-01-31T13:54:32;4.10;99.90
17053;DHT22;8643;48.824;11.422;2023-01-31T13:57:20;4.00;99.90
17053;DHT22;8643;48.824;11.422;2023-01-31T13:59:54;4.00;99.90
17053;DHT22;8643;48.824;11.422;2023-01-31T14:02:27;4.00;99.90
17053;DHT22;8643;48.824;11.422;2023-01-31T14:05:04;3.90;99.90
17053;DHT22;8643;48.824;11.422;2023-01-31T14:08:28;4.00;99.90
17053;DHT22;8643;48.824;11.422;2023-01-31T14:11:00;4.00;99.90
17053;DHT22;8643;48.824;11.422;2023-01-31T14:13:41;4.00;99.90
17053;DHT22;8643;48.824;11.422;2023-01-31T14:16:37;3.90;99.90
17053;DHT22;8643;48.824;11.422;2023-01-31T14:19:33;3.90;99.90
17053;DHT22;8643;48.824;11.422;2023-01-31T14:22:30;3.90;99.90
17053;DHT22;8643;48.824;11.422;2023-01-31T14:25:09;3.90;99.90
17053;DHT22;8643;48.824;11.422;2023-01-31T14:27:44;3.90;99.90
17053;DHT22;8643;48.824;11.422;2023-01-31T14:30:42;3.90;99.90
17053;DHT22;8643;48.824;11.422;2023-01-31T14:33:20;3.30;99.90
17053;DHT22;8643;48.824;11.422;2023-01-31T14:36:15;4.00;99.90
17053;DHT22;8643;48.824;11.422;2023-01-31T14:39:32;4.00;99.90
17053;DHT22;8643;48.824;11.422;2023-01-31T14:42:48;4.00;99.90
17053;DHT22;8643;48.824;11.422;2023-01-31T14:45:41;4.00;99.90
17053;DHT22;8643;48.824;11.422;2023-01-31T14:49:07;4.00;99.90
17053;DHT22;8643;48.824;11.422;2023-01-31T14:52:04;4.00;99.90
17053;DHT22;8643;48.824;11.422;2023-01-31T14:55:03;4.00;99.90
17053;DHT22;8643;48.824;11.422;2023-01-31T14:57:53;4.00;99.90
17053;DHT22;8643;48.824;11.422;2023-01-31T15:00:27;3.90;99.90
17053;DHT22;8643;48.824;11.422;2023-01-31T15:03:04;3.90;99.90
17053;DHT22;8643;48.824;11.422;2023-01-31T15:05:41;3.90;99.90
17053;DHT22;8643;48.824;11.422;2023-01-31T15:08:34;3.90;99.90
17053;DHT22;8643;48.824;11.422;2023-01-31T15:11:06;3.50;99.90
17053;DHT22;8643;48.824;11.422;2023-01-31T15:13:43;3.90;99.90
17053;DHT22;8643;48.824;11.422;2023-01-31T15:16:18;3.90;99.90
17053;DHT22;8643;48.824;11.422;2023-01-31T15:18:53;3.90;99.90
17053;DHT22;8643;48.824;11.422;2023-01-31T15:21:28;3.90;99.90
17053;DHT22;8643;48.824;11.422;2023-01-31T15:26:31;3.90;99.90
17053;DHT22;8643;48.824;11.422;2023-01-31T15:29:03;3.90;99.90
17053;DHT22;8643;48.824;11.422;2023-01-31T15:31:37;3.80;99.90
17053;DHT22;8643;48.824;11.422;2023-01-31T15:34:15;3.80;99.90
17053;DHT22;8643;48.824;11.422;2023-01-31T15:36:56;3.80;99.90
17053;DHT22;8643;48.824;11.422;2023-01-31T15:39:35;3.90;99.90
17053;DHT22;8643;48.824;11.422;2023-01-31T15:42:22;3.80;99.90
17053;DHT22;8643;48.824;11.422;2023-01-31T15:45:16;3.80;99.90
17053;DHT22;8643;48.824;11.422;2023-01-31T15:47:57;3.80;99.90
17053;DHT22;8643;48.824;11.422;2023-01-31T15:50:31;3.80;99.90
17053;DHT22;8643;48.824;11.422;2023-01-31T15:53:02;3.80;99.90
17053;DHT22;8643;48.824;11.422;2023-01-31T15:55:33;3.80;99.90
17053;DHT22;8643;48.824;11.422;2023-01-31T15:58:03;3.80;99.90
17053;DHT22;8643;48.824;11.422;2023-01-31T16:00:36;3.80;99.90
17053;DHT22;8643;48.824;11.422;2023-01-31T16:05:36;4.70;99.90
17053;DHT22;8643;48.824;11.422;2023-01-31T16:08:17;3.70;99.90
17053;DHT22;8643;48.824;11.422;2023-01-31T16:10:48;4.60;99.90
17053;DHT22;8643;48.824;11.422;2023-01-31T16:15:49;3.70;99.90
17053;DHT22;8643;48.824;11.422;2023-01-31T16:18:18;3.70;99.90
17053;DHT22;8643;48.824;11.422;2023-01-31T16:20:49;3.60;99.90
17053;DHT22;8643;48.824;11.422;2023-01-31T16:23:30;3.60;99.90
17053;DHT22;8643;48.824;11.422;2023-01-31T16:26:04;3.60;99.90
17053;DHT22;8643;48.824;11.422;2023-01-31T16:28:37;3.60;99.90
17053;DHT22;8643;48.824;11.422;2023-01-31T16:31:10;3.60;99.90
17053;DHT22;8643;48.824;11.422;2023-01-31T16:33:46;3.60;99.90
17053;DHT22;8643;48.824;11.422;2023-01-31T16:36:21;3.60;99.90
17053;DHT22;8643;48.824;11.422;2023-01-31T16:38:56;3.60;99.90
17053;DHT22;8643;48.824;11.422;2023-01-31T16:41:43;3.70;99.90
17053;DHT22;8643;48.824;11.422;2023-01-31T16:44:19;3.60;99.90
17053;DHT22;8643;48.824;11.422;2023-01-31T16:46:53;3.60;99.90
17053;DHT22;8643;48.824;11.422;2023-01-31T16:49:23;3.60;99.90
17053;DHT22;8643;48.824;11.422;2023-01-31T16:51:55;3.60;99.90
17053;DHT22;8643;48.824;11.422;2023-01-31T16:54:27;3.60;99.90
17053;DHT22;8643;48.824;11.422;2023-01-31T16:57:06;3.60;99.90
17053;DHT22;8643;48.824;11.422;2023-01-31T16:59:51;3.70;99.90
17053;DHT22;8643;48.824;11.422;2023-01-31T17:02:28;3.70;99.90
17053;DHT22;8643;48.824;11.422;2023-01-31T17:05:13;3.70;99.90
17053;DHT22;8643;48.824;11.422;2023-01-31T17:07:46;3.80;99.90
17053;DHT22;8643;48.824;11.422;2023-01-31T17:10:18;3.70;99.90
17053;DHT22;8643;48.824;11.422;2023-01-31T17:12:50;3.70;99.90
17053;DHT22;8643;48.824;11.422;2023-01-31T17:17:52;3.70;99.90
17053;DHT22;8643;48.824;11.422;2023-01-31T17:20:21;3.60;99.90
17053;DHT22;8643;48.824;11.422;2023-01-31T17:22:50;3.60;99.90
17053;DHT22;8643;48.824;11.422;2023-01-31T17:25:31;3.60;99.90
17053;DHT22;8643;48.824;11.422;2023-01-31T17:30:32;6.50;99.90
17053;DHT22;8643;48.824;11.422;2023-01-31T17:33:02;3.70;99.90
17053;DHT22;8643;48.824;11.422;2023-01-31T17:35:34;3.70;99.90
17053;DHT22;8643;48.824;11.422;2023-01-31T17:38:04;2.70;99.90
17053;DHT22;8643;48.824;11.422;2023-01-31T17:40:33;3.60;99.90
17053;DHT22;8643;48.824;11.422;2023-01-31T17:43:03;3.60;99.90